sensor_id;sensor_type;location;lat;lon;timestamp;pressure;altitude;pressure_sealevel;temperature;humidity
41254;BME280;26987;59.928;30.306;2023-07-20T00:00:48;99688.97;;;15.21;100.00
41254;BME280;26987;59.928;30.306;2023-07-20T00:03:20;99694.91;;;15.23;100.00
41254;BME280;26987;59.928;30.306;2023-07-20T00:05:51;99699.78;;;15.26;100.00
41254;BME280;26987;59.928;30.306;2023-07-20T00:08:19;99692.47;;;15.22;100.00
41254;BME280;26987;59.928;30.306;2023-07-20T00:10:47;99683.28;;;15.23;100.00
41254;BME280;26987;59.928;30.306;2023-07-20T00:13:15;99695.47;;;15.31;100.00
41254;BME280;26987;59.928;30.306;2023-07-20T00:15:46;99695.78;;;15.34;100.00
41254;BME280;26987;59.928;30.306;2023-07-20T00:18:14;99696.56;;;15.35;100.00
41254;BME280;26987;59.928;30.306;2023-07-20T00:20:42;99708.19;;;15.35;100.00
41254;BME280;26987;59.928;30.306;2023-07-20T00:23:10;99686.56;;;15.30;100.00
41254;BME280;26987;59.928;30.306;2023-07-20T00:25:37;99696.56;;;15.35;100.00
41254;BME280;26987;59.928;30.306;2023-07-20T00:28:05;99698.75;;;15.38;100.00
41254;BME280;26987;59.928;30.306;2023-07-20T00:30:33;99706.84;;;15.38;100.00
41254;BME280;26987;59.928;30.306;2023-07-20T00:33:02;99695.53;;;15.41;100.00
41254;BME280;26987;59.928;30.306;2023-07-20T00:35:30;99694.72;;;15.41;100.00
41254;BME280;26987;59.928;30.306;2023-07-20T00:37:59;99695.53;;;15.41;100.00
41254;BME280;26987;59.928;30.306;2023-07-20T00:40:27;99695.00;;;15.39;100.00
41254;BME280;26987;59.928;30.306;2023-07-20T00:42:56;99581.59;;;14.70;100.00
41254;BME280;26987;59.928;30.306;2023-07-20T00:45:24;99684.69;;;15.31;100.00
41254;BME280;26987;59.928;30.306;2023-07-20T00:47:53;99699.88;;;15.47;100.00
41254;BME280;26987;59.928;30.306;2023-07-20T00:50:22;99699.34;;;15.50;100.00
41254;BME280;26987;59.928;30.306;2023-07-20T00:52:51;99684.75;;;15.51;100.00
41254;BME280;26987;59.928;30.306;2023-07-20T00:55:19;99698.28;;;15.62;100.00
41254;BME280;26987;59.928;30.306;2023-07-20T00:57:47;99696.69;;;15.66;100.00
41254;BME280;26987;59.928;30.306;2023-07-20T01:00:16;99700.47;;;15.70;100.00
41254;BME280;26987;59.928;30.306;2023-07-20T01:02:44;99697.25;;;15.73;100.00
41254;BME280;26987;59.928;30.306;2023-07-20T01:05:12;99701.59;;;15.80;100.00
41254;BME280;26987;59.928;30.306;2023-07-20T01:07:53;99690.78;;;15.80;100.00
41254;BME280;26987;59.928;30.306;2023-07-20T01:10:27;99636.13;;;15.51;100.00
41254;BME280;26987;59.928;30.306;2023-07-20T01:12:57;99704.84;;;15.87;100.00
41254;BME280;26987;59.928;30.306;2023-07-20T01:15:25;99698.06;;;15.89;100.00
41254;BME280;26987;59.928;30.306;2023-07-20T01:17:53;99705.91;;;15.91;100.00
41254;BME280;26987;59.928;30.306;2023-07-20T01:20:21;99704.81;;;15.92;100.00
41254;BME280;26987;59.928;30.306;2023-07-20T01:23:06;99700.56;;;15.96;100.00
41254;BME280;26987;59.928;30.306;2023-07-20T01:25:58;99714.59;;;15.98;100.00
41254;BME280;26987;59.928;30.306;2023-07-20T01:28:39;99694.56;;;15.89;100.00
41254;BME280;26987;59.928;30.306;2023-07-20T01:31:24;99710.22;;;15.92;100.00
41254;BME280;26987;59.928;30.306;2023-07-20T01:33:56;99671.84;;;15.69;100.00
41254;BME280;26987;59.928;30.306;2023-07-20T01:36:26;99712.13;;;15.86;100.00
41254;BME280;26987;59.928;30.306;2023-07-20T01:38:56;99688.06;;;15.74;100.00
41254;BME280;26987;59.928;30.306;2023-07-20T01:41:24;99709.41;;;15.86;100.00
41254;BME280;26987;59.928;30.306;2023-07-20T01:43:52;99711.31;;;15.91;100.00
41254;BME280;26987;59.928;30.306;2023-07-20T01:46:20;99707.53;;;15.87;100.00
41254;BME280;26987;59.928;30.306;2023-07-20T01:48:49;99710.25;;;15.87;100.00
41254;BME280;26987;59.928;30.306;2023-07-20T01:51:17;99698.03;;;15.74;100.00
41254;BME280;26987;59.928;30.306;2023-07-20T01:53:45;99715.09;;;15.85;100.00
41254;BME280;26987;59.928;30.306;2023-07-20T01:56:14;99715.91;;;15.85;100.00
41254;BME280;26987;59.928;30.306;2023-07-20T01:58:43;99719.69;;;15.89;100.00
41254;BME280;26987;59.928;30.306;2023-07-20T02:01:10;99715.38;;;15.94;100.00
41254;BME280;26987;59.928;30.306;2023-07-20T02:03:38;99721.34;;;15.96;100.00
41254;BME280;26987;59.928;30.306;2023-07-20T02:06:08;99716.78;;;15.96;100.00
41254;BME280;26987;59.928;30.306;2023-07-20T02:08:36;99715.63;;;15.92;100.00
41254;BME280;26987;59.928;30.306;2023-07-20T02:11:03;99716.47;;;15.93;100.00
41254;BME280;26987;59.928;30.306;2023-07-20T02:13:31;99709.69;;;15.95;100.00
41254;BME280;26987;59.928;30.306;2023-07-20T02:15:59;99717.56;;;15.97;100.00
41254;BME280;26987;59.928;30.306;2023-07-20T02:18:27;99718.13;;;15.99;100.00
41254;BME280;26987;59.928;30.306;2023-07-20T02:20:55;99710.03;;;15.99;100.00
41254;BME280;26987;59.928;30.306;2023-07-20T02:23:24;99715.94;;;15.96;100.00
41254;BME280;26987;59.928;30.306;2023-07-20T02:25:52;99711.88;;;15.93;100.00
41254;BME280;26987;59.928;30.306;2023-07-20T02:28:20;99717.31;;;15.98;100.00
41254;BME280;26987;59.928;30.306;2023-07-20T02:30:47;99710.28;;;15.97;100.00
41254;BME280;26987;59.928;30.306;2023-07-20T02:33:16;99715.16;;;16.00;100.00
41254;BME280;26987;59.928;30.306;2023-07-20T02:35:44;99716.25;;;15.99;100.00
41254;BME280;26987;59.928;30.306;2023-07-20T02:38:12;99717.03;;;16.00;100.00
41254;BME280;26987;59.928;30.306;2023-07-20T02:40:41;99722.72;;;16.04;100.00
41254;BME280;26987;59.928;30.306;2023-07-20T02:43:09;99721.13;;;16.08;100.00
41254;BME280;26987;59.928;30.306;2023-07-20T02:45:40;99696.72;;;15.92;100.00
41254;BME280;26987;59.928;30.306;2023-07-20T02:48:09;99718.69;;;16.11;100.00
41254;BME280;26987;59.928;30.306;2023-07-20T02:50:36;99726.78;;;16.17;100.00
41254;BME280;26987;59.928;30.306;2023-07-20T02:53:04;99719.78;;;16.26;100.00
41254;BME280;26987;59.928;30.306;2023-07-20T02:55:32;99720.59;;;16.26;100.00
41254;BME280;26987;59.928;30.306;2023-07-20T02:58:01;99724.38;;;16.31;100.00
41254;BME280;26987;59.928;30.306;2023-07-20T03:00:29;99726.28;;;16.46;100.00
41254;BME280;26987;59.928;30.306;2023-07-20T03:02:57;99727.06;;;16.51;100.00
41254;BME280;26987;59.928;30.306;2023-07-20T03:05:25;99723.81;;;16.55;100.00
41254;BME280;26987;59.928;30.306;2023-07-20T03:07:55;99671.09;;;16.36;100.00
41254;BME280;26987;59.928;30.306;2023-07-20T03:10:23;99715.13;;;16.73;100.00
41254;BME280;26987;59.928;30.306;2023-07-20T03:12:50;99717.03;;;16.83;100.00
41254;BME280;26987;59.928;30.306;2023-07-20T03:15:20;99722.16;;;16.85;100.00
41254;BME280;26987;59.928;30.306;2023-07-20T03:17:48;99716.75;;;16.80;100.00
41254;BME280;26987;59.928;30.306;2023-07-20T03:20:16;99715.97;;;16.79;100.00
41254;BME280;26987;59.928;30.306;2023-07-20T03:22:44;99711.88;;;16.76;100.00
41254;BME280;26987;59.928;30.306;2023-07-20T03:25:12;99716.22;;;16.77;100.00
41254;BME280;26987;59.928;30.306;2023-07-20T03:27:40;99721.09;;;16.75;100.00
41254;BME280;26987;59.928;30.306;2023-07-20T03:30:09;99721.63;;;16.72;100.00
41254;BME280;26987;59.928;30.306;2023-07-20T03:32:39;99714.09;;;16.64;100.00
41254;BME280;26987;59.928;30.306;2023-07-20T03:35:08;99720.28;;;16.64;100.00
41254;BME280;26987;59.928;30.306;2023-07-20T03:37:36;99725.44;;;16.71;100.00
41254;BME280;26987;59.928;30.306;2023-07-20T03:40:05;99723.22;;;16.84;100.00
41254;BME280;26987;59.928;30.306;2023-07-20T03:42:33;99720.78;;;17.03;100.00
41254;BME280;26987;59.928;30.306;2023-07-20T03:45:02;99730.94;;;17.48;98.83
41254;BME280;26987;59.928;30.306;2023-07-20T03:47:30;99727.22;;;17.84;96.31
41254;BME280;26987;59.928;30.306;2023-07-20T03:50:00;99728.16;;;18.09;95.18
41254;BME280;26987;59.928;30.306;2023-07-20T03:52:27;99719.19;;;18.08;94.24
41254;BME280;26987;59.928;30.306;2023-07-20T03:54:55;99736.72;;;18.26;93.60
41254;BME280;26987;59.928;30.306;2023-07-20T03:57:23;99732.91;;;18.27;92.77
41254;BME280;26987;59.928;30.306;2023-07-20T03:59:51;99728.03;;;18.30;92.27
41254;BME280;26987;59.928;30.306;2023-07-20T04:02:19;99733.16;;;18.31;91.99
41254;BME280;26987;59.928;30.306;2023-07-20T04:04:47;99725.53;;;18.33;91.42
41254;BME280;26987;59.928;30.306;2023-07-20T04:07:16;99739.47;;;18.56;90.66
41254;BME280;26987;59.928;30.306;2023-07-20T04:09:44;99739.38;;;19.45;86.30
41254;BME280;26987;59.928;30.306;2023-07-20T04:12:12;99739.88;;;19.91;82.75
41254;BME280;26987;59.928;30.306;2023-07-20T04:14:40;99739.34;;;20.08;81.20
41254;BME280;26987;59.928;30.306;2023-07-20T04:17:08;99745.53;;;20.47;80.03
41254;BME280;26987;59.928;30.306;2023-07-20T04:19:39;99746.38;;;20.95;77.37
41254;BME280;26987;59.928;30.306;2023-07-20T04:22:07;99748.84;;;20.77;76.93
41254;BME280;26987;59.928;30.306;2023-07-20T04:24:37;99745.66;;;20.42;78.37
41254;BME280;26987;59.928;30.306;2023-07-20T04:27:05;99751.41;;;20.02;79.74
41254;BME280;26987;59.928;30.306;2023-07-20T04:29:32;99740.72;;;19.67;80.79
41254;BME280;26987;59.928;30.306;2023-07-20T04:32:01;99724.22;;;19.39;81.75
41254;BME280;26987;59.928;30.306;2023-07-20T04:34:29;99743.25;;;19.39;82.58
41254;BME280;26987;59.928;30.306;2023-07-20T04:36:58;99740.94;;;19.27;83.23
41254;BME280;26987;59.928;30.306;2023-07-20T04:39:27;99737.69;;;19.00;83.97
41254;BME280;26987;59.928;30.306;2023-07-20T04:41:57;99747.28;;;18.93;85.00
41254;BME280;26987;59.928;30.306;2023-07-20T04:44:25;99743.84;;;18.82;84.87
41254;BME280;26987;59.928;30.306;2023-07-20T04:46:53;99736.28;;;18.78;85.02
41254;BME280;26987;59.928;30.306;2023-07-20T04:49:21;99744.66;;;18.82;84.82
41254;BME280;26987;59.928;30.306;2023-07-20T04:51:49;99747.47;;;18.72;85.58
41254;BME280;26987;59.928;30.306;2023-07-20T04:54:17;99741.91;;;18.58;85.37
41254;BME280;26987;59.928;30.306;2023-07-20T04:56:46;99749.91;;;18.73;84.93
41254;BME280;26987;59.928;30.306;2023-07-20T04:59:15;99746.06;;;18.80;84.96
41254;BME280;26987;59.928;30.306;2023-07-20T05:01:43;99747.56;;;18.91;84.44
41254;BME280;26987;59.928;30.306;2023-07-20T05:04:11;99749.13;;;18.97;83.80
41254;BME280;26987;59.928;30.306;2023-07-20T05:06:39;99751.19;;;19.06;83.47
41254;BME280;26987;59.928;30.306;2023-07-20T05:09:08;99753.34;;;19.14;83.11
41254;BME280;26987;59.928;30.306;2023-07-20T05:11:36;99761.47;;;19.14;82.75
41254;BME280;26987;59.928;30.306;2023-07-20T05:14:04;99741.97;;;19.07;82.59
41254;BME280;26987;59.928;30.306;2023-07-20T05:16:33;99754.78;;;19.31;82.13
41254;BME280;26987;59.928;30.306;2023-07-20T05:19:04;99755.72;;;19.64;80.31
41254;BME280;26987;59.928;30.306;2023-07-20T05:21:32;99762.25;;;20.07;78.06
41254;BME280;26987;59.928;30.306;2023-07-20T05:24:00;99760.91;;;20.57;75.75
41254;BME280;26987;59.928;30.306;2023-07-20T05:26:28;99763.63;;;21.47;72.63
41254;BME280;26987;59.928;30.306;2023-07-20T05:28:56;99774.44;;;23.26;65.16
41254;BME280;26987;59.928;30.306;2023-07-20T05:31:24;99764.75;;;23.69;62.30
41254;BME280;26987;59.928;30.306;2023-07-20T05:33:54;99756.06;;;23.85;61.32
41254;BME280;26987;59.928;30.306;2023-07-20T05:36:21;99755.22;;;23.49;61.66
41254;BME280;26987;59.928;30.306;2023-07-20T05:38:50;99760.53;;;22.73;63.96
41254;BME280;26987;59.928;30.306;2023-07-20T05:41:17;99751.34;;;22.23;66.12
41254;BME280;26987;59.928;30.306;2023-07-20T05:43:45;99759.59;;;22.09;67.32
41254;BME280;26987;59.928;30.306;2023-07-20T05:46:13;99760.25;;;21.92;67.46
41254;BME280;26987;59.928;30.306;2023-07-20T05:48:41;99753.50;;;21.61;68.63
41254;BME280;26987;59.928;30.306;2023-07-20T05:51:10;99756.53;;;21.88;68.15
41254;BME280;26987;59.928;30.306;2023-07-20T05:53:38;99757.66;;;22.10;66.66
41254;BME280;26987;59.928;30.306;2023-07-20T05:56:06;99756.72;;;23.15;62.99
41254;BME280;26987;59.928;30.306;2023-07-20T05:58:36;99766.53;;;23.92;59.75
41254;BME280;26987;59.928;30.306;2023-07-20T06:01:04;99739.59;;;25.13;54.59
41254;BME280;26987;59.928;30.306;2023-07-20T06:03:33;99761.38;;;25.91;51.58
41254;BME280;26987;59.928;30.306;2023-07-20T06:06:01;99758.88;;;26.41;49.89
41254;BME280;26987;59.928;30.306;2023-07-20T06:08:31;99757.09;;;25.60;51.59
41254;BME280;26987;59.928;30.306;2023-07-20T06:10:59;99735.63;;;25.31;52.33
41254;BME280;26987;59.928;30.306;2023-07-20T06:13:27;99759.09;;;26.14;50.20
41254;BME280;26987;59.928;30.306;2023-07-20T06:15:55;99755.78;;;25.87;50.40
41254;BME280;26987;59.928;30.306;2023-07-20T06:18:23;99748.38;;;24.97;52.64
41254;BME280;26987;59.928;30.306;2023-07-20T06:20:51;99769.53;;;24.79;54.43
41254;BME280;26987;59.928;30.306;2023-07-20T06:23:19;99769.44;;;24.31;55.99
41254;BME280;26987;59.928;30.306;2023-07-20T06:25:49;99765.75;;;24.09;56.73
41254;BME280;26987;59.928;30.306;2023-07-20T06:28:17;99768.47;;;23.83;57.49
41254;BME280;26987;59.928;30.306;2023-07-20T06:30:45;99768.81;;;24.25;56.23
41254;BME280;26987;59.928;30.306;2023-07-20T06:33:13;99766.38;;;23.79;56.85
41254;BME280;26987;59.928;30.306;2023-07-20T06:35:41;99765.09;;;22.87;59.02
41254;BME280;26987;59.928;30.306;2023-07-20T06:38:10;99753.84;;;22.11;60.89
41254;BME280;26987;59.928;30.306;2023-07-20T06:40:38;99762.38;;;21.95;62.13
41254;BME280;26987;59.928;30.306;2023-07-20T06:43:07;99769.19;;;21.84;63.82
41254;BME280;26987;59.928;30.306;2023-07-20T06:45:35;99772.41;;;21.58;65.28
41254;BME280;26987;59.928;30.306;2023-07-20T06:48:03;99770.00;;;21.42;65.61
41254;BME280;26987;59.928;30.306;2023-07-20T06:50:31;99771.91;;;21.55;65.43
41254;BME280;26987;59.928;30.306;2023-07-20T06:52:59;99775.44;;;21.56;66.10
41254;BME280;26987;59.928;30.306;2023-07-20T06:55:29;99775.03;;;21.91;63.22
41254;BME280;26987;59.928;30.306;2023-07-20T06:57:57;99770.75;;;22.22;60.27
41254;BME280;26987;59.928;30.306;2023-07-20T07:00:26;99779.22;;;22.80;58.69
41254;BME280;26987;59.928;30.306;2023-07-20T07:02:54;99784.09;;;23.33;56.18
41254;BME280;26987;59.928;30.306;2023-07-20T07:05:22;99778.13;;;23.30;55.82
41254;BME280;26987;59.928;30.306;2023-07-20T07:07:50;99787.00;;;24.30;53.05
41254;BME280;26987;59.928;30.306;2023-07-20T07:10:18;99779.94;;;25.03;50.87
41254;BME280;26987;59.928;30.306;2023-07-20T07:12:46;99777.50;;;25.41;48.60
41254;BME280;26987;59.928;30.306;2023-07-20T07:15:14;99771.25;;;25.01;49.32
41254;BME280;26987;59.928;30.306;2023-07-20T07:17:43;99792.47;;;24.48;51.89
41254;BME280;26987;59.928;30.306;2023-07-20T07:20:11;99774.41;;;23.93;54.36
41254;BME280;26987;59.928;30.306;2023-07-20T07:22:39;99784.91;;;24.36;53.16
41254;BME280;26987;59.928;30.306;2023-07-20T07:25:10;99782.50;;;24.52;52.20
41254;BME280;26987;59.928;30.306;2023-07-20T07:27:38;99784.25;;;24.39;52.41
41254;BME280;26987;59.928;30.306;2023-07-20T07:30:07;99791.22;;;24.27;53.76
41254;BME280;26987;59.928;30.306;2023-07-20T07:32:35;99783.31;;;24.17;53.87
41254;BME280;26987;59.928;30.306;2023-07-20T07:35:05;99779.44;;;23.91;55.10
41254;BME280;26987;59.928;30.306;2023-07-20T07:37:33;99795.16;;;23.86;55.11
41254;BME280;26987;59.928;30.306;2023-07-20T07:40:01;99778.72;;;23.50;55.46
41254;BME280;26987;59.928;30.306;2023-07-20T07:42:29;99790.19;;;23.21;56.94
41254;BME280;26987;59.928;30.306;2023-07-20T07:44:57;99788.06;;;23.17;57.13
41254;BME280;26987;59.928;30.306;2023-07-20T07:47:25;99777.06;;;23.00;57.43
41254;BME280;26987;59.928;30.306;2023-07-20T07:49:53;99782.88;;;23.07;57.38
41254;BME280;26987;59.928;30.306;2023-07-20T07:52:22;99791.69;;;23.36;56.66
41254;BME280;26987;59.928;30.306;2023-07-20T07:54:50;99780.53;;;23.23;56.41
41254;BME280;26987;59.928;30.306;2023-07-20T07:57:18;99787.31;;;22.94;57.94
41254;BME280;26987;59.928;30.306;2023-07-20T07:59:46;99785.19;;;22.59;59.07
41254;BME280;26987;59.928;30.306;2023-07-20T08:02:13;99791.34;;;22.65;59.53
41254;BME280;26987;59.928;30.306;2023-07-20T08:04:41;99780.63;;;22.77;58.93
41254;BME280;26987;59.928;30.306;2023-07-20T08:07:09;99767.72;;;22.92;58.30
41254;BME280;26987;59.928;30.306;2023-07-20T08:09:38;99781.09;;;23.02;58.29
41254;BME280;26987;59.928;30.306;2023-07-20T08:12:07;99792.66;;;22.99;58.24
41254;BME280;26987;59.928;30.306;2023-07-20T08:14:35;99791.78;;;22.90;58.63
41254;BME280;26987;59.928;30.306;2023-07-20T08:17:03;99793.25;;;22.64;59.58
41254;BME280;26987;59.928;30.306;2023-07-20T08:19:31;99777.03;;;22.45;59.82
41254;BME280;26987;59.928;30.306;2023-07-20T08:21:58;99781.38;;;22.23;60.77
41254;BME280;26987;59.928;30.306;2023-07-20T08:24:26;99788.41;;;22.15;61.16
41254;BME280;26987;59.928;30.306;2023-07-20T08:26:55;99786.38;;;22.07;61.59
41254;BME280;26987;59.928;30.306;2023-07-20T08:29:24;99791.09;;;21.92;61.88
41254;BME280;26987;59.928;30.306;2023-07-20T08:31:52;99791.59;;;21.66;62.59
41254;BME280;26987;59.928;30.306;2023-07-20T08:34:19;99789.91;;;21.57;63.61
41254;BME280;26987;59.928;30.306;2023-07-20T08:36:47;99800.19;;;21.32;64.16
41254;BME280;26987;59.928;30.306;2023-07-20T08:39:15;99801.63;;;21.29;64.55
41254;BME280;26987;59.928;30.306;2023-07-20T08:41:43;99794.75;;;21.17;64.16
41254;BME280;26987;59.928;30.306;2023-07-20T08:44:12;99802.19;;;21.12;64.88
41254;BME280;26987;59.928;30.306;2023-07-20T08:46:41;99794.25;;;20.82;65.36
41254;BME280;26987;59.928;30.306;2023-07-20T08:49:11;99804.94;;;20.78;66.11
41254;BME280;26987;59.928;30.306;2023-07-20T08:51:39;99800.88;;;20.62;66.39
41254;BME280;26987;59.928;30.306;2023-07-20T08:54:09;99806.91;;;20.59;67.52
41254;BME280;26987;59.928;30.306;2023-07-20T08:56:40;99799.94;;;20.52;66.54
41254;BME280;26987;59.928;30.306;2023-07-20T08:59:08;99812.53;;;20.48;66.60
41254;BME280;26987;59.928;30.306;2023-07-20T09:01:39;99808.03;;;20.19;66.27
41254;BME280;26987;59.928;30.306;2023-07-20T09:04:07;99809.47;;;19.92;67.45
41254;BME280;26987;59.928;30.306;2023-07-20T09:06:35;99810.53;;;19.72;67.96
41254;BME280;26987;59.928;30.306;2023-07-20T09:09:03;99815.88;;;19.58;69.15
41254;BME280;26987;59.928;30.306;2023-07-20T09:11:31;99813.38;;;19.37;69.95
41254;BME280;26987;59.928;30.306;2023-07-20T09:14:03;99809.69;;;19.27;70.42
41254;BME280;26987;59.928;30.306;2023-07-20T09:16:31;99812.53;;;19.17;70.65
41254;BME280;26987;59.928;30.306;2023-07-20T09:19:01;99819.84;;;19.16;72.38
41254;BME280;26987;59.928;30.306;2023-07-20T09:21:29;99828.88;;;19.12;72.63
41254;BME280;26987;59.928;30.306;2023-07-20T09:23:58;99824.03;;;19.03;72.67
41254;BME280;26987;59.928;30.306;2023-07-20T09:26:25;99826.25;;;18.96;72.33
41254;BME280;26987;59.928;30.306;2023-07-20T09:28:53;99826.25;;;18.96;72.04
41254;BME280;26987;59.928;30.306;2023-07-20T09:31:22;99825.69;;;18.99;71.41
41254;BME280;26987;59.928;30.306;2023-07-20T09:33:52;99821.03;;;19.05;71.10
41254;BME280;26987;59.928;30.306;2023-07-20T09:36:22;99831.63;;;19.07;70.79
41254;BME280;26987;59.928;30.306;2023-07-20T09:38:50;99819.31;;;19.14;70.07
41254;BME280;26987;59.928;30.306;2023-07-20T09:41:18;99826.63;;;19.19;70.18
41254;BME280;26987;59.928;30.306;2023-07-20T09:43:46;99796.63;;;19.00;69.65
41254;BME280;26987;59.928;30.306;2023-07-20T09:46:14;99820.47;;;19.08;69.99
41254;BME280;26987;59.928;30.306;2023-07-20T09:48:51;99813.38;;;19.12;69.45
41254;BME280;26987;59.928;30.306;2023-07-20T09:51:22;99793.00;;;18.80;69.90
41254;BME280;26987;59.928;30.306;2023-07-20T09:53:52;99818.69;;;18.93;70.63
41254;BME280;26987;59.928;30.306;2023-07-20T09:56:21;99794.19;;;18.69;71.35
41254;BME280;26987;59.928;30.306;2023-07-20T09:58:50;99834.19;;;18.93;71.90
41254;BME280;26987;59.928;30.306;2023-07-20T10:01:20;99829.31;;;18.89;71.84
41254;BME280;26987;59.928;30.306;2023-07-20T10:03:49;99844.19;;;18.97;72.61
41254;BME280;26987;59.928;30.306;2023-07-20T10:06:24;99826.25;;;18.96;72.72
41254;BME280;26987;59.928;30.306;2023-07-20T10:08:56;99830.31;;;18.99;73.62
41254;BME280;26987;59.928;30.306;2023-07-20T10:11:30;99810.63;;;18.83;74.13
41254;BME280;26987;59.928;30.306;2023-07-20T10:13:59;99828.19;;;18.96;74.08
41254;BME280;26987;59.928;30.306;2023-07-20T10:16:35;99837.78;;;19.18;73.55
41254;BME280;26987;59.928;30.306;2023-07-20T10:19:05;99824.66;;;19.25;72.93
41254;BME280;26987;59.928;30.306;2023-07-20T10:21:40;99838.59;;;19.67;71.46
41254;BME280;26987;59.928;30.306;2023-07-20T10:24:09;99836.72;;;20.11;69.39
41254;BME280;26987;59.928;30.306;2023-07-20T10:26:38;99845.38;;;20.52;67.81
41254;BME280;26987;59.928;30.306;2023-07-20T10:29:07;99841.44;;;20.77;65.58
41254;BME280;26987;59.928;30.306;2023-07-20T10:31:37;99852.03;;;20.79;63.82
41254;BME280;26987;59.928;30.306;2023-07-20T10:34:05;99844.09;;;20.63;63.11
41254;BME280;26987;59.928;30.306;2023-07-20T10:36:45;99845.78;;;20.78;63.78
41254;BME280;26987;59.928;30.306;2023-07-20T10:39:22;99839.38;;;20.88;63.31
41254;BME280;26987;59.928;30.306;2023-07-20T10:41:59;99845.38;;;21.04;62.98
41254;BME280;26987;59.928;30.306;2023-07-20T10:44:28;99827.13;;;21.05;63.19
41254;BME280;26987;59.928;30.306;2023-07-20T10:46:59;99832.28;;;21.07;63.35
41254;BME280;26987;59.928;30.306;2023-07-20T10:49:28;99826.41;;;20.99;63.96
41254;BME280;26987;59.928;30.306;2023-07-20T10:51:59;99836.88;;;20.92;64.24
41254;BME280;26987;59.928;30.306;2023-07-20T10:54:49;99836.72;;;21.02;65.04
41254;BME280;26987;59.928;30.306;2023-07-20T10:57:29;99836.28;;;20.95;64.69
41254;BME280;26987;59.928;30.306;2023-07-20T11:00:12;99840.97;;;20.89;64.26
41254;BME280;26987;59.928;30.306;2023-07-20T11:02:45;99841.63;;;20.67;63.81
41254;BME280;26987;59.928;30.306;2023-07-20T11:05:35;99842.25;;;20.78;63.48
41254;BME280;26987;59.928;30.306;2023-07-20T11:08:08;99842.59;;;20.57;63.96
41254;BME280;26987;59.928;30.306;2023-07-20T11:10:36;99836.84;;;20.59;64.56
41254;BME280;26987;59.928;30.306;2023-07-20T11:13:21;99838.22;;;20.75;63.44
41254;BME280;26987;59.928;30.306;2023-07-20T11:16:03;99817.69;;;20.64;62.69
41254;BME280;26987;59.928;30.306;2023-07-20T11:18:35;99840.13;;;20.75;62.18
41254;BME280;26987;59.928;30.306;2023-07-20T11:21:08;99832.56;;;20.72;62.46
41254;BME280;26987;59.928;30.306;2023-07-20T11:23:39;99832.97;;;20.79;62.04
41254;BME280;26987;59.928;30.306;2023-07-20T11:26:07;99828.72;;;20.73;60.58
41254;BME280;26987;59.928;30.306;2023-07-20T11:28:36;99833.53;;;20.62;59.75
41254;BME280;26987;59.928;30.306;2023-07-20T11:31:04;99844.84;;;20.69;60.68
41254;BME280;26987;59.928;30.306;2023-07-20T11:33:31;99835.34;;;20.66;60.68
41254;BME280;26987;59.928;30.306;2023-07-20T11:35:59;99834.28;;;20.48;60.19
41254;BME280;26987;59.928;30.306;2023-07-20T11:38:27;99832.75;;;20.23;61.62
41254;BME280;26987;59.928;30.306;2023-07-20T11:40:56;99834.66;;;20.22;62.03
41254;BME280;26987;59.928;30.306;2023-07-20T11:43:24;99827.91;;;20.20;61.52
41254;BME280;26987;59.928;30.306;2023-07-20T11:45:52;99833.84;;;20.41;61.39
41254;BME280;26987;59.928;30.306;2023-07-20T11:48:20;99836.56;;;20.60;60.96
41254;BME280;26987;59.928;30.306;2023-07-20T11:50:48;99822.94;;;20.41;60.47
41254;BME280;26987;59.928;30.306;2023-07-20T11:53:17;99838.09;;;20.47;59.75
41254;BME280;26987;59.928;30.306;2023-07-20T11:55:45;99840.44;;;20.35;60.14
41254;BME280;26987;59.928;30.306;2023-07-20T11:58:15;99830.19;;;20.32;61.06
41254;BME280;26987;59.928;30.306;2023-07-20T12:00:44;99838.91;;;20.48;60.94
41254;BME280;26987;59.928;30.306;2023-07-20T12:03:12;99840.31;;;20.64;59.89
41254;BME280;26987;59.928;30.306;2023-07-20T12:05:41;99850.31;;;20.69;59.66
41254;BME280;26987;59.928;30.306;2023-07-20T12:08:09;99838.00;;;20.72;59.16
41254;BME280;26987;59.928;30.306;2023-07-20T12:10:39;99803.88;;;20.60;57.80
41254;BME280;26987;59.928;30.306;2023-07-20T12:13:11;99837.31;;;20.80;55.83
41254;BME280;26987;59.928;30.306;2023-07-20T12:15:40;99828.84;;;20.82;56.61
41254;BME280;26987;59.928;30.306;2023-07-20T12:18:08;99834.09;;;20.78;57.59
41254;BME280;26987;59.928;30.306;2023-07-20T12:20:37;99840.31;;;20.78;57.86
41254;BME280;26987;59.928;30.306;2023-07-20T12:23:09;99835.06;;;20.68;59.37
41254;BME280;26987;59.928;30.306;2023-07-20T12:25:38;99839.88;;;20.57;59.84
41254;BME280;26987;59.928;30.306;2023-07-20T12:28:08;99842.13;;;20.50;59.31
41254;BME280;26987;59.928;30.306;2023-07-20T12:30:36;99839.13;;;20.51;59.67
41254;BME280;26987;59.928;30.306;2023-07-20T12:33:06;99839.22;;;20.46;58.03
41254;BME280;26987;59.928;30.306;2023-07-20T12:35:34;99830.78;;;20.28;59.16
41254;BME280;26987;59.928;30.306;2023-07-20T12:38:02;99829.28;;;20.17;59.96
41254;BME280;26987;59.928;30.306;2023-07-20T12:40:30;99839.59;;;20.20;57.48
41254;BME280;26987;59.928;30.306;2023-07-20T12:42:58;99842.31;;;20.20;57.83
41254;BME280;26987;59.928;30.306;2023-07-20T12:45:25;99840.59;;;20.24;58.17
41254;BME280;26987;59.928;30.306;2023-07-20T12:47:53;99809.50;;;20.11;58.41
41254;BME280;26987;59.928;30.306;2023-07-20T12:50:23;99845.75;;;20.26;58.88
41254;BME280;26987;59.928;30.306;2023-07-20T12:52:51;99830.97;;;20.13;57.43
41254;BME280;26987;59.928;30.306;2023-07-20T12:55:18;99825.97;;;20.01;57.68
41254;BME280;26987;59.928;30.306;2023-07-20T12:57:47;99810.88;;;19.89;58.33